createdAt,value
2022-10-18T00:01:22.116Z,12.40
2022-10-18T00:03:50.916Z,12.00
2022-10-18T00:06:19.912Z,11.75
2022-10-18T00:08:48.705Z,14.02
2022-10-18T00:11:17.727Z,11.65
2022-10-18T00:13:48.033Z,11.45
2022-10-18T00:16:19.019Z,10.73
2022-10-18T00:18:48.957Z,10.60
2022-10-18T00:23:50.167Z,12.10
2022-10-18T00:26:21.456Z,11.90
2022-10-18T00:28:54.891Z,13.45
2022-10-18T00:31:26.036Z,12.55
2022-10-18T00:33:58.688Z,9.77
2022-10-18T00:36:29.320Z,9.43
2022-10-18T00:38:58.798Z,9.02
2022-10-18T00:41:30.390Z,7.55
2022-10-18T00:44:02.434Z,8.45
2022-10-18T00:46:33.364Z,8.50
2022-10-18T00:49:04.628Z,7.18
2022-10-18T00:51:38.791Z,5.70
2022-10-18T00:54:07.952Z,5.20
2022-10-18T00:56:37.109Z,5.60
2022-10-18T00:59:08.296Z,6.30
2022-10-18T01:01:37.622Z,4.47
2022-10-18T01:04:06.573Z,4.77
2022-10-18T01:06:44.445Z,6.55
2022-10-18T01:09:23.738Z,12.88
2022-10-18T01:12:16.599Z,5.32
2022-10-18T01:14:54.055Z,3.58
2022-10-18T01:17:28.553Z,4.68
2022-10-18T01:20:36.137Z,4.30
2022-10-18T01:23:09.807Z,4.28
2022-10-18T01:25:51.547Z,3.22
2022-10-18T01:28:46.658Z,4.07
2022-10-18T01:31:21.233Z,4.53
2022-10-18T01:33:53.350Z,2.97
2022-10-18T01:36:28.321Z,4.07
2022-10-18T01:39:01.486Z,5.20
2022-10-18T01:41:31.116Z,4.38
2022-10-18T01:44:03.024Z,5.25
2022-10-18T01:46:34.400Z,3.83
2022-10-18T01:49:03.601Z,2.95
2022-10-18T01:51:33.756Z,3.13
2022-10-18T01:54:03.122Z,3.00
2022-10-18T01:56:42.074Z,3.67
2022-10-18T01:59:27.336Z,2.70
2022-10-18T02:02:07.755Z,5.13
2022-10-18T02:04:45.445Z,2.83
2022-10-18T02:07:24.538Z,3.08
2022-10-18T02:10:02.272Z,6.28
2022-10-18T02:12:33.218Z,3.63
2022-10-18T02:15:04.096Z,2.80
2022-10-18T02:17:34.534Z,3.20
2022-10-18T02:20:05.549Z,3.88
2022-10-18T02:22:36.510Z,2.60
2022-10-18T02:25:10.778Z,4.72
2022-10-18T02:27:40.443Z,4.15
2022-10-18T02:30:10.929Z,3.75
2022-10-18T02:32:47.965Z,3.08
2022-10-18T02:35:24.407Z,4.13
2022-10-18T02:37:55.259Z,3.20
2022-10-18T02:40:24.476Z,3.17
2022-10-18T02:42:56.898Z,3.30
2022-10-18T02:45:26.577Z,2.60
2022-10-18T02:47:56.816Z,4.15
2022-10-18T02:50:25.846Z,3.60
2022-10-18T02:52:54.714Z,2.97
2022-10-18T02:55:23.791Z,3.10
2022-10-18T02:57:52.664Z,4.55
2022-10-18T03:00:21.839Z,2.15
2022-10-18T03:02:51.087Z,2.03
2022-10-18T03:05:21.531Z,3.67
2022-10-18T03:07:50.415Z,2.42
2022-10-18T03:10:19.575Z,1.65
2022-10-18T03:12:48.459Z,2.88
2022-10-18T03:15:17.551Z,3.55
2022-10-18T03:17:46.467Z,16.08
2022-10-18T03:20:15.530Z,26.45
2022-10-18T03:22:45.694Z,45.80
2022-10-18T03:25:14.844Z,71.00
2022-10-18T03:27:43.657Z,131.20
2022-10-18T03:30:13.791Z,141.00
2022-10-18T03:32:42.703Z,28.55
2022-10-18T03:35:12.285Z,39.28
2022-10-18T03:37:41.201Z,29.35
2022-10-18T03:40:12.533Z,27.73
2022-10-18T03:42:41.376Z,26.73
2022-10-18T03:45:11.098Z,11.23
2022-10-18T03:47:39.992Z,11.68
2022-10-18T03:50:09.713Z,14.40
2022-10-18T03:52:38.610Z,17.75
2022-10-18T03:55:10.208Z,26.58
2022-10-18T03:57:39.060Z,26.63
2022-10-18T04:00:09.393Z,22.05
2022-10-18T04:02:41.271Z,10.82
2022-10-18T04:05:10.951Z,22.37
2022-10-18T04:07:39.878Z,19.98
2022-10-18T04:10:11.035Z,21.27
2022-10-18T04:12:40.064Z,13.50
2022-10-18T04:15:10.249Z,2.88
2022-10-18T04:17:39.145Z,6.13
2022-10-18T04:20:09.249Z,4.00
2022-10-18T04:22:38.096Z,5.22
2022-10-18T04:25:07.769Z,5.13
2022-10-18T04:27:38.210Z,6.00
2022-10-18T04:30:08.375Z,5.65
2022-10-18T04:32:37.224Z,4.93
2022-10-18T04:35:07.389Z,7.90
2022-10-18T04:37:36.348Z,8.18
2022-10-18T04:40:06.386Z,35.08
2022-10-18T04:42:35.234Z,9.13
2022-10-18T04:45:06.485Z,8.32
2022-10-18T04:47:35.572Z,4.55
2022-10-18T04:50:05.872Z,5.60
2022-10-18T04:52:34.994Z,25.15
2022-10-18T04:55:04.040Z,43.75
2022-10-18T04:57:33.157Z,15.43
2022-10-18T05:00:02.496Z,16.90
2022-10-18T05:02:32.961Z,9.45
2022-10-18T05:05:02.257Z,4.93
2022-10-18T05:07:31.482Z,6.73
2022-10-18T05:10:00.502Z,4.28
2022-10-18T05:12:29.699Z,6.35
2022-10-18T05:14:58.927Z,6.68
2022-10-18T05:17:27.812Z,5.32
2022-10-18T05:19:58.196Z,6.65
2022-10-18T05:24:55.889Z,5.07
2022-10-18T05:27:24.772Z,4.05
2022-10-18T05:29:53.780Z,5.05
2022-10-18T05:32:22.726Z,4.22
2022-10-18T05:34:51.790Z,4.20
2022-10-18T05:37:26.017Z,7.65
2022-10-18T05:39:57.266Z,2.95
2022-10-18T05:42:26.295Z,4.10
2022-10-18T05:44:55.307Z,6.80
2022-10-18T05:47:24.163Z,5.38
2022-10-18T05:49:53.246Z,7.35
2022-10-18T05:52:23.495Z,7.20
2022-10-18T05:54:52.560Z,8.70
2022-10-18T05:57:21.413Z,5.45
2022-10-18T05:59:50.432Z,4.32
2022-10-18T06:02:19.402Z,5.90
2022-10-18T06:04:48.520Z,6.73
2022-10-18T06:07:17.905Z,5.03
2022-10-18T06:09:48.412Z,5.40
2022-10-18T06:12:17.246Z,4.25
2022-10-18T06:14:46.320Z,3.75
2022-10-18T06:17:15.194Z,4.95
2022-10-18T06:19:44.505Z,15.00
2022-10-18T06:22:13.360Z,6.60
2022-10-18T06:24:42.369Z,5.68
2022-10-18T06:27:12.574Z,6.05
2022-10-18T06:29:41.915Z,5.82
2022-10-18T06:32:10.933Z,10.20
2022-10-18T06:34:40.028Z,4.50
2022-10-18T06:37:09.393Z,5.55
2022-10-18T06:39:38.385Z,7.78
2022-10-18T06:42:07.181Z,5.68
2022-10-18T06:44:37.862Z,10.80
2022-10-18T06:47:08.225Z,4.80
2022-10-18T06:49:37.321Z,8.23
2022-10-18T06:52:07.316Z,7.70
2022-10-18T06:57:05.141Z,7.05
2022-10-18T06:59:34.224Z,10.18
2022-10-18T07:02:04.468Z,11.68
2022-10-18T07:04:33.591Z,6.65
2022-10-18T07:07:02.439Z,8.23
2022-10-18T07:09:31.684Z,7.28
2022-10-18T07:12:00.540Z,10.70
2022-10-18T07:14:29.704Z,8.77
2022-10-18T07:17:01.301Z,10.02
2022-10-18T07:19:31.684Z,10.85
2022-10-18T07:24:29.471Z,7.80
2022-10-18T07:26:58.318Z,10.48
2022-10-18T07:29:27.386Z,12.25
2022-10-18T07:31:56.283Z,11.60
2022-10-18T07:34:25.442Z,4.85
2022-10-18T07:36:55.641Z,7.35
2022-10-18T07:39:25.109Z,7.82
2022-10-18T07:41:54.246Z,7.15
2022-10-18T07:44:23.530Z,4.07
2022-10-18T07:46:52.359Z,8.40
2022-10-18T07:49:21.379Z,6.93
2022-10-18T07:51:50.576Z,9.10
2022-10-18T07:54:22.364Z,10.18
2022-10-18T07:56:51.198Z,12.82
2022-10-18T07:59:20.207Z,10.25
2022-10-18T08:01:49.068Z,11.55
2022-10-18T08:04:18.264Z,11.02
2022-10-18T08:06:47.715Z,9.30
2022-10-18T08:09:16.812Z,7.13
2022-10-18T08:11:47.072Z,8.55
2022-10-18T08:14:16.342Z,8.27
2022-10-18T08:16:45.186Z,7.55
2022-10-18T08:19:14.214Z,18.90
2022-10-18T08:21:43.157Z,6.85
2022-10-18T08:24:12.209Z,8.20
2022-10-18T08:26:41.108Z,10.50
2022-10-18T08:29:22.428Z,5.53
2022-10-18T08:31:53.701Z,6.75
2022-10-18T08:34:22.775Z,8.20
2022-10-18T08:36:51.607Z,6.72
2022-10-18T08:39:20.680Z,5.78
2022-10-18T08:42:15.335Z,9.32
2022-10-18T08:44:48.127Z,9.30
2022-10-18T08:47:19.922Z,7.43
2022-10-18T08:49:52.813Z,7.55
2022-10-18T08:52:31.996Z,10.07
2022-10-18T08:55:05.200Z,7.40
2022-10-18T08:57:34.543Z,8.00
2022-10-18T09:00:16.083Z,8.23
2022-10-18T09:03:08.386Z,5.85
2022-10-18T09:05:47.735Z,8.57
2022-10-18T09:08:47.674Z,11.57
2022-10-18T09:14:25.752Z,10.38
2022-10-18T09:17:06.789Z,5.90
2022-10-18T09:19:55.034Z,6.85
2022-10-18T09:22:34.023Z,6.32
2022-10-18T09:25:12.548Z,6.32
2022-10-18T09:27:52.237Z,5.03
2022-10-18T09:30:30.537Z,7.30
2022-10-18T09:33:08.376Z,6.32
2022-10-18T09:35:45.435Z,7.13
2022-10-18T09:38:20.727Z,9.07
2022-10-18T09:40:55.306Z,7.22
2022-10-18T09:43:27.643Z,6.45
2022-10-18T09:45:57.767Z,8.60
2022-10-18T09:48:32.250Z,4.68
2022-10-18T09:51:09.083Z,7.50
2022-10-18T09:53:43.914Z,5.68
2022-10-18T09:56:17.343Z,9.05
2022-10-18T09:58:48.751Z,6.97
2022-10-18T10:01:21.733Z,5.45
2022-10-18T10:03:52.460Z,9.10
2022-10-18T10:06:29.175Z,4.93
2022-10-18T10:09:06.204Z,4.40
2022-10-18T10:11:37.857Z,7.15
2022-10-18T10:14:13.794Z,5.00
2022-10-18T10:16:50.851Z,5.18
2022-10-18T10:19:27.945Z,8.60
2022-10-18T10:22:01.116Z,6.80
2022-10-18T10:24:47.729Z,7.30
2022-10-18T10:27:21.431Z,5.72
2022-10-18T10:29:56.555Z,7.18
2022-10-18T10:32:28.713Z,5.38
2022-10-18T10:34:59.779Z,6.90
2022-10-18T10:37:35.264Z,6.35
2022-10-18T10:40:18.756Z,5.40
2022-10-18T10:43:33.100Z,5.78
2022-10-18T10:46:08.737Z,4.72
2022-10-18T10:48:48.197Z,4.80
2022-10-18T10:51:30.009Z,5.78
2022-10-18T10:54:04.970Z,5.75
2022-10-18T10:56:36.950Z,7.95
2022-10-18T10:59:14.632Z,8.00
2022-10-18T11:01:44.071Z,8.63
2022-10-18T11:04:26.321Z,11.13
2022-10-18T11:07:13.552Z,6.75
2022-10-18T11:09:58.365Z,5.60
2022-10-18T11:12:34.597Z,5.75
2022-10-18T11:15:22.128Z,5.55
2022-10-18T11:18:04.103Z,10.80
2022-10-18T11:20:38.088Z,11.93
2022-10-18T11:23:11.948Z,10.25
2022-10-18T11:26:02.986Z,6.32
2022-10-18T11:28:47.101Z,11.43
2022-10-18T11:31:20.605Z,6.93
2022-10-18T11:34:16.288Z,6.88
2022-10-18T11:36:56.367Z,5.43
2022-10-18T11:39:51.014Z,3.80
2022-10-18T11:42:27.953Z,6.45
2022-10-18T11:45:08.048Z,6.68
2022-10-18T11:47:45.773Z,6.47
2022-10-18T11:50:26.689Z,6.50
2022-10-18T11:53:05.618Z,8.48
2022-10-18T11:55:47.954Z,10.25
2022-10-18T11:58:40.911Z,5.53
2022-10-18T12:01:24.738Z,9.45
2022-10-18T12:04:03.787Z,7.90
2022-10-18T12:06:37.602Z,7.45
2022-10-18T12:09:15.692Z,7.75
2022-10-18T12:11:55.806Z,5.20
2022-10-18T12:17:35.908Z,5.82
2022-10-18T12:19:53.102Z,6.22
2022-10-18T12:22:27.058Z,9.57
2022-10-18T12:24:55.938Z,5.85
2022-10-18T12:27:38.986Z,7.57
2022-10-18T12:30:15.447Z,10.52
2022-10-18T12:33:02.106Z,10.60
2022-10-18T12:35:45.849Z,10.10
2022-10-18T12:38:22.477Z,9.18
2022-10-18T12:40:53.760Z,10.07
2022-10-18T12:43:27.689Z,15.52
2022-10-18T12:45:59.130Z,12.63
2022-10-18T12:48:32.989Z,7.63
2022-10-18T12:51:14.109Z,13.40
2022-10-18T12:53:45.205Z,13.80
2022-10-18T12:56:41.883Z,10.13
2022-10-18T12:59:50.964Z,11.90
2022-10-18T13:02:30.593Z,12.05
2022-10-18T13:05:02.300Z,7.45
2022-10-18T13:07:41.051Z,13.85
2022-10-18T13:10:40.626Z,8.70
2022-10-18T13:14:15.728Z,11.00
2022-10-18T13:16:50.575Z,11.90
2022-10-18T13:19:42.649Z,14.73
2022-10-18T13:22:39.450Z,13.23
2022-10-18T13:25:17.963Z,12.68
2022-10-18T13:27:57.370Z,14.35
2022-10-18T13:30:54.511Z,10.03
2022-10-18T13:33:38.929Z,9.88
2022-10-18T13:36:27.800Z,10.40
2022-10-18T13:39:06.001Z,13.93
2022-10-18T13:42:06.970Z,17.10
2022-10-18T13:44:39.994Z,9.55
2022-10-18T13:47:14.979Z,14.65
2022-10-18T13:50:19.925Z,12.57
2022-10-18T13:53:30.431Z,17.08
2022-10-18T13:56:47.024Z,12.63
2022-10-18T14:02:51.112Z,5.45
2022-10-18T14:05:46.887Z,8.98
2022-10-18T14:08:20.985Z,9.93
2022-10-18T14:11:02.513Z,9.93
2022-10-18T14:13:39.985Z,8.60
2022-10-18T14:16:24.928Z,12.50
2022-10-18T14:18:58.144Z,9.38
2022-10-18T14:21:45.479Z,14.55
2022-10-18T14:24:34.131Z,10.63
2022-10-18T14:27:22.617Z,13.55
2022-10-18T14:33:00.427Z,17.20
2022-10-18T14:35:33.304Z,17.25
2022-10-18T14:38:03.428Z,15.38
2022-10-18T14:40:37.915Z,17.42
2022-10-18T14:43:12.283Z,10.68
2022-10-18T14:45:42.271Z,17.40
2022-10-18T14:48:17.159Z,9.57
2022-10-18T14:50:50.421Z,8.00
2022-10-18T14:53:22.118Z,14.57
2022-10-18T14:56:01.121Z,11.35
2022-10-18T14:58:30.267Z,10.80
2022-10-18T15:01:00.036Z,24.88
2022-10-18T15:03:29.294Z,22.38
2022-10-18T15:06:00.951Z,35.17
2022-10-18T15:08:36.661Z,85.13
2022-10-18T15:11:11.835Z,21.88
2022-10-18T15:13:49.208Z,11.35
2022-10-18T15:16:19.788Z,17.35
2022-10-18T15:19:02.820Z,11.93
2022-10-18T15:21:32.217Z,6.57
2022-10-18T15:24:20.584Z,9.32
2022-10-18T15:26:52.841Z,13.70
2022-10-18T15:29:24.785Z,10.18
2022-10-18T15:31:54.535Z,9.30
2022-10-18T15:34:25.852Z,9.15
2022-10-18T15:36:56.690Z,10.15
2022-10-18T15:39:27.487Z,12.70
2022-10-18T15:41:59.880Z,9.80
2022-10-18T15:44:32.125Z,14.10
2022-10-18T15:47:20.629Z,11.95
2022-10-18T15:49:55.220Z,18.50
2022-10-18T15:52:38.857Z,14.65
2022-10-18T15:55:49.747Z,13.43
2022-10-18T15:58:40.020Z,9.20
2022-10-18T16:01:17.114Z,10.70
2022-10-18T16:03:48.428Z,13.13
2022-10-18T16:06:18.544Z,9.57
2022-10-18T16:08:49.689Z,10.10
2022-10-18T16:11:20.867Z,11.80
2022-10-18T16:13:54.018Z,8.40
2022-10-18T16:16:27.440Z,14.18
2022-10-18T16:18:56.986Z,13.80
2022-10-18T16:21:28.017Z,14.38
2022-10-18T16:23:57.716Z,12.85
2022-10-18T16:26:28.048Z,12.57
2022-10-18T16:28:59.843Z,10.00
2022-10-18T16:31:30.713Z,11.40
2022-10-18T16:34:00.543Z,11.88
2022-10-18T16:36:31.295Z,12.32
2022-10-18T16:39:03.465Z,13.90
2022-10-18T16:41:32.411Z,9.50
2022-10-18T16:44:02.908Z,14.27
2022-10-18T16:46:33.856Z,10.65
2022-10-18T16:49:10.607Z,15.00
2022-10-18T16:51:39.417Z,13.10
2022-10-18T16:54:09.049Z,12.93
2022-10-18T16:56:38.126Z,14.95
2022-10-18T16:59:09.092Z,11.17
2022-10-18T17:01:38.389Z,10.85
2022-10-18T17:04:07.641Z,9.67
2022-10-18T17:06:36.496Z,11.45
2022-10-18T17:09:05.885Z,9.70
2022-10-18T17:11:35.130Z,16.57
2022-10-18T17:14:04.394Z,11.93
2022-10-18T17:16:36.931Z,8.77
2022-10-18T17:19:08.451Z,10.43
2022-10-18T17:21:37.425Z,8.52
2022-10-18T17:24:06.934Z,16.23
2022-10-18T17:26:36.207Z,15.73
2022-10-18T17:29:08.498Z,13.53
2022-10-18T17:31:38.875Z,15.60
2022-10-18T17:34:08.981Z,15.02
2022-10-18T17:36:37.875Z,11.23
2022-10-18T17:39:07.278Z,14.73
2022-10-18T17:41:36.117Z,14.80
2022-10-18T17:44:05.953Z,11.35
2022-10-18T17:46:34.811Z,11.02
2022-10-18T17:49:05.301Z,13.80
2022-10-18T17:51:34.184Z,13.07
2022-10-18T17:54:04.935Z,12.73
2022-10-18T17:56:35.887Z,12.68
2022-10-18T17:59:05.052Z,9.90
2022-10-18T18:01:33.907Z,11.32
2022-10-18T18:04:05.431Z,9.27
2022-10-18T18:06:36.374Z,13.80
2022-10-18T18:09:08.068Z,10.60
2022-10-18T18:11:38.602Z,11.82
2022-10-18T18:14:09.666Z,11.63
2022-10-18T18:16:40.556Z,12.52
2022-10-18T18:19:11.547Z,11.43
2022-10-18T18:21:41.532Z,9.32
2022-10-18T18:24:11.325Z,17.65
2022-10-18T18:26:41.479Z,15.18
2022-10-18T18:29:12.587Z,10.50
2022-10-18T18:31:44.054Z,8.60
2022-10-18T18:34:14.604Z,12.35
2022-10-18T18:36:43.885Z,12.15
2022-10-18T18:39:21.231Z,11.15
2022-10-18T18:41:51.660Z,12.02
2022-10-18T18:44:21.621Z,15.55
2022-10-18T18:46:50.829Z,12.10
2022-10-18T18:49:21.361Z,10.38
2022-10-18T18:51:50.233Z,12.98
2022-10-18T18:54:19.394Z,15.20
2022-10-18T18:56:48.374Z,10.18
2022-10-18T18:59:18.410Z,15.35
2022-10-18T19:01:47.486Z,18.05
2022-10-18T19:04:17.041Z,16.27
2022-10-18T19:06:47.607Z,14.97
2022-10-18T19:09:22.001Z,10.10
2022-10-18T19:11:52.975Z,16.27
2022-10-18T19:14:24.170Z,13.13
2022-10-18T19:16:55.319Z,12.55
2022-10-18T19:19:26.257Z,19.23
2022-10-18T19:21:58.102Z,11.32
2022-10-18T19:24:30.285Z,12.25
2022-10-18T19:27:01.374Z,13.35
2022-10-18T19:29:32.953Z,14.05
2022-10-18T19:32:03.684Z,12.65
2022-10-18T19:34:34.836Z,10.90
2022-10-18T19:37:05.348Z,8.43
2022-10-18T19:39:35.883Z,11.32
2022-10-18T19:42:07.132Z,10.77
2022-10-18T19:44:37.968Z,13.27
2022-10-18T19:47:08.615Z,9.20
2022-10-18T19:49:37.858Z,13.18
2022-10-18T19:52:08.130Z,13.30
2022-10-18T19:54:37.260Z,10.32
2022-10-18T19:57:06.911Z,16.25
2022-10-18T19:59:36.500Z,16.17
2022-10-18T20:02:05.639Z,15.40
2022-10-18T20:04:35.211Z,11.80
2022-10-18T20:07:50.356Z,11.40
2022-10-18T20:10:52.807Z,15.88
2022-10-18T20:13:48.407Z,15.68
2022-10-18T20:16:26.957Z,11.40
2022-10-18T20:18:58.816Z,17.58
2022-10-18T20:21:29.341Z,10.52
2022-10-18T20:23:59.563Z,14.55
2022-10-18T20:26:28.735Z,10.13
2022-10-18T20:29:00.043Z,15.68
2022-10-18T20:31:31.024Z,14.38
2022-10-18T20:34:01.549Z,12.32
2022-10-18T20:36:31.991Z,13.35
2022-10-18T20:41:33.776Z,13.30
2022-10-18T20:44:05.265Z,11.10
2022-10-18T20:46:36.575Z,12.48
2022-10-18T20:49:06.575Z,9.35
2022-10-18T20:54:07.673Z,9.90
2022-10-18T20:56:38.683Z,13.68
2022-10-18T20:59:10.012Z,11.85
2022-10-18T21:01:40.717Z,12.48
2022-10-18T21:04:11.058Z,10.27
2022-10-18T21:06:42.823Z,10.52
2022-10-18T21:09:15.418Z,10.32
2022-10-18T21:11:47.563Z,11.57
2022-10-18T21:14:18.648Z,13.85
2022-10-18T21:16:48.637Z,13.02
2022-10-18T21:19:19.428Z,10.13
2022-10-18T21:21:51.257Z,11.80
2022-10-18T21:24:22.786Z,13.10
2022-10-18T21:26:51.963Z,14.73
2022-10-18T21:29:22.718Z,11.20
2022-10-18T21:31:55.094Z,9.55
2022-10-18T21:34:24.223Z,12.43
2022-10-18T21:36:53.366Z,7.50
2022-10-18T21:39:25.233Z,11.32
2022-10-18T21:41:54.436Z,11.52
2022-10-18T21:44:23.668Z,9.48
2022-10-18T21:46:52.888Z,7.15
2022-10-18T21:49:24.923Z,11.20
2022-10-18T21:51:54.135Z,10.43
2022-10-18T21:54:24.525Z,8.82
2022-10-18T21:56:53.769Z,9.57
2022-10-18T21:59:22.974Z,7.72
2022-10-18T22:01:53.988Z,10.13
2022-10-18T22:04:24.875Z,8.65
2022-10-18T22:06:54.206Z,13.18
2022-10-18T22:09:24.629Z,7.47
2022-10-18T22:11:55.020Z,9.48
2022-10-18T22:16:53.989Z,9.77
2022-10-18T22:19:23.016Z,8.40
2022-10-18T22:21:52.267Z,15.20
2022-10-18T22:24:21.317Z,6.85
2022-10-18T22:26:52.208Z,9.40
2022-10-18T22:29:22.761Z,9.38
2022-10-18T22:31:53.859Z,12.40
2022-10-18T22:34:24.851Z,8.93
2022-10-18T22:36:54.413Z,8.63
2022-10-18T22:39:24.574Z,12.00
2022-10-18T22:41:56.583Z,9.65
2022-10-18T22:44:26.276Z,7.47
2022-10-18T22:46:55.481Z,12.30
2022-10-18T22:49:24.436Z,7.28
2022-10-18T22:51:53.710Z,8.00
2022-10-18T22:54:22.727Z,10.88
2022-10-18T22:56:51.926Z,6.50
2022-10-18T22:59:22.380Z,8.93
2022-10-18T23:01:51.563Z,8.70
2022-10-18T23:04:20.691Z,8.90
2022-10-18T23:06:50.242Z,8.15
2022-10-18T23:09:19.254Z,7.72
2022-10-18T23:11:50.869Z,6.25
2022-10-18T23:14:21.743Z,5.97
2022-10-18T23:16:50.940Z,7.20
2022-10-18T23:19:19.995Z,9.88
2022-10-18T23:21:49.231Z,7.63
2022-10-18T23:24:18.246Z,7.00
2022-10-18T23:26:47.421Z,7.15
2022-10-18T23:29:16.404Z,12.10
2022-10-18T23:31:46.983Z,5.28
2022-10-18T23:34:16.161Z,5.82
2022-10-18T23:36:45.344Z,9.90
2022-10-18T23:39:14.342Z,7.75
2022-10-18T23:41:43.508Z,7.07
2022-10-18T23:44:12.515Z,7.78
2022-10-18T23:46:41.719Z,5.65
2022-10-18T23:49:12.804Z,6.25
2022-10-18T23:51:42.067Z,4.05
2022-10-18T23:54:11.061Z,6.10
2022-10-18T23:56:40.275Z,4.15
2022-10-18T23:59:09.275Z,4.78
